KABY/ABY METAR and TAF weather

Enter ICAO airport designator
Station Type Date Time Source
KABY METAR 2021/09/25 10:53 UTC NOAA

KABY 251053Z AUTO 00000KT 10SM CLR 16/14 A3009 RMK AO2 SLP189 T01610139


Station Type Date Time Source
KABY Decoded METAR 2021/09/25 10:53 UTC NOAA

ALBANY SOUTHWEST GEORGIA, GA, United States (KABY) 31-32N 084-12W 58M
Sep 25, 2021 - 06:53 AM EDT / 2021.09.25 1053 UTC
Wind: Calm:0
Visibility: 10 mile(s):0
Sky conditions: clear
Temperature: 61.0 F (16.1 C)
Dew Point: 57.0 F (13.9 C)
Relative Humidity: 86%
Pressure (altimeter): 30.09 in. Hg (1018 hPa)
ob: KABY 251053Z AUTO 00000KT 10SM CLR 16/14 A3009 RMK AO2 SLP189 T01610139
cycle: 11

Station Type Date Time Source
KABY TAF 2021/09/25 12:22 UTC NOAA

TAF KABY 251120Z 2512/2612 36004KT P6SM SKC

Example: see airport list